CNV4 weather

Hawkesbury Airport
Hawkesbury, Ontario, Canada

Public forecast

Using degrees Celsius for public forecast. Weather courtesy of forecast.io.

METAR (pilot weather report)

Closest report is Montreal International (Mirabel) Airport, 25.9 nm (48.0 km) E. Retrieved 2019/05/27 12:00 UTC (60 minutes ago):

CYMX 271200Z 02005KT 330V100 45SM BKN060 OVC220 11/05 A3004 RMK SC7CI1 SLP174

TAF (pilot weather forecast)

Closest forecast is Montreal International (Mirabel) Airport, 25.9 nm (48.0 km) E. Retrieved 2019/05/27 12:42 UTC (18 minutes ago):

TAF CYMX 271138Z 2712/2812 04005KT P6SM SCT050 BKN120 TEMPO 2714/2717 P6SM -SHRA BKN050 OVC120 FM271700 30007KT P6SM FEW050 BECMG 2800/2802 33005KT FM281000 06006KT P6SM OVC150 RMK NXT FCST BY 271800Z